ADDS METAR Data INFO
IDs: Format: Raw Decoded Include TAF

Data at: 0543 UTC 21 Apr 2018

KBKW 210451Z AUTO 00000KT 10SM CLR 03/M07 A3038 RMK AO2 SLP301 T00281072 401221006 TSNO
KBKW 210351Z AUTO 05004KT 10SM CLR 04/M07 A3037 RMK AO2 SLP298 T00441067 TSNO
KBKW 210251Z AUTO 00000KT 10SM CLR 07/M08 A3038 RMK AO2 SLP300 T00671083 51008 TSNO
KBKW 210151Z AUTO 33004KT 10SM CLR 07/M08 A3038 RMK AO2 SLP301 T00671078 TSNO
KBKW 210051Z AUTO 34005KT 10SM CLR 08/M08 A3037 RMK AO2 SLP299 T00781078 TSNO
KBKW 202351Z AUTO 34007KT 10SM CLR 09/M08 A3036 RMK AO2 SLP294 T00941083 10122 20089 53007 TSNO
KBKW 202251Z AUTO 34009KT 10SM CLR 11/M09 A3034 RMK AO2 SLP287 T01111094 TSNO
KBKW 202151Z AUTO 36008KT 340V050 10SM CLR 12/M08 A3033 RMK AO2 SLP282 T01221083 TSNO
KBKW 202051Z AUTO 30008G15KT 10SM CLR 12/M07 A3033 RMK AO2 SLP281 T01221072 58011 TSNO
KBKW 201951Z AUTO 35009KT 10SM CLR 12/M08 A3035 RMK AO2 SLP287 T01171083 TSNO
KBKW 201851Z AUTO VRB03KT 10SM CLR 10/M09 A3036 RMK AO2 SLP293 T01001089 TSNO
KBKW 201751Z AUTO 10SM CLR 09/M08 A3037 RMK AO2 SLP298 T00941078 10094 20006 58004 TSNO
KBKW 201651Z AUTO 34012G18KT 10SM CLR 08/M08 A3038 RMK AO2 SLP304 T00781078 TSNO
KBKW 201551Z AUTO 33010G17KT 10SM CLR 07/M09 A3039 RMK AO2 SLP309 T00671089 TSNO
KBKW 201451Z AUTO 35014G20KT 10SM CLR 05/M09 A3038 RMK AO2 SLP307 T00501094 53015 TSNO
KBKW 201351Z AUTO 03006KT 10SM CLR 03/M09 A3036 RMK AO2 SLP302 T00331094 TSNO
KBKW 201251Z AUTO 02009KT 10SM CLR 02/M09 A3035 RMK AO2 SLP299 T00221094 TSNO
KBKW 201151Z AUTO 35008KT 10SM CLR 01/M08 A3033 RMK AO2 SLP296 T00061078 10011 21006 51022 TSNO
KBKW 201051Z AUTO 35007KT 10SM CLR M01/M06 A3031 RMK AO2 SLP288 T10061061 TSNO
KBKW 200951Z AUTO 34005KT 10SM CLR 00/M04 A3029 RMK AO2 SLP282 T00001039 TSNO
KBKW 200851Z AUTO 32007KT 10SM CLR 01/M04 A3027 RMK AO2 SLP273 T00111039 53009 TSNO
KBKW 200751Z AUTO 28006KT 10SM CLR 01/M04 A3025 RMK AO2 SLP266 T00061039 TSNO
KBKW 200651Z AUTO 29006KT 10SM CLR 01/M04 A3024 RMK AO2 SLP262 T00061039 TSNO
KBKW 200551Z AUTO 27007KT 10SM CLR 01/M04 A3024 RMK AO2 SLP264 T00061039 10028 20006 52001 TSNO